createdAt,value
2018-09-09T00:00:27.419Z,5.57
2018-09-09T00:05:29.936Z,4.93
2018-09-09T00:10:32.464Z,4.87
2018-09-09T00:15:34.980Z,4.87
2018-09-09T00:20:37.499Z,4.60
2018-09-09T00:25:40.010Z,4.70
2018-09-09T00:30:42.553Z,4.07
2018-09-09T00:35:45.059Z,4.80
2018-09-09T00:40:47.595Z,4.80
2018-09-09T00:45:50.278Z,4.50
2018-09-09T00:50:58.492Z,4.23
2018-09-09T00:56:01.012Z,4.63
2018-09-09T01:01:09.303Z,4.50
2018-09-09T01:06:11.804Z,4.40
2018-09-09T01:11:14.331Z,4.90
2018-09-09T01:16:16.864Z,4.77
2018-09-09T01:21:19.398Z,4.63
2018-09-09T01:26:21.926Z,5.20
2018-09-09T01:31:24.450Z,4.50
2018-09-09T01:36:26.966Z,4.70
2018-09-09T01:41:29.490Z,5.03
2018-09-09T01:46:32.018Z,4.90
2018-09-09T01:51:34.556Z,4.57
2018-09-09T01:56:37.071Z,4.80
2018-09-09T02:01:39.576Z,5.07
2018-09-09T02:06:42.075Z,5.83
2018-09-09T02:11:44.587Z,6.90
2018-09-09T02:16:47.138Z,5.60
2018-09-09T02:21:49.687Z,5.97
2018-09-09T02:26:52.222Z,6.00
2018-09-09T02:31:54.750Z,5.63
2018-09-09T02:36:57.260Z,5.17
2018-09-09T02:41:59.792Z,5.83
2018-09-09T02:47:02.325Z,4.80
2018-09-09T02:52:04.876Z,4.50
2018-09-09T02:57:07.471Z,4.33
2018-09-09T03:02:09.967Z,4.87
2018-09-09T03:07:12.471Z,5.03
2018-09-09T03:12:14.995Z,4.87
2018-09-09T03:17:17.534Z,5.00
2018-09-09T03:22:20.071Z,6.37
2018-09-09T03:27:22.671Z,5.93
2018-09-09T03:32:25.200Z,5.37
2018-09-09T03:37:27.708Z,6.27
2018-09-09T03:42:30.225Z,6.33
2018-09-09T03:47:32.751Z,6.53
2018-09-09T03:52:35.262Z,6.47
2018-09-09T03:57:37.821Z,6.77
2018-09-09T04:02:40.367Z,7.87
2018-09-09T04:07:42.942Z,7.97
2018-09-09T04:12:45.524Z,8.17
2018-09-09T04:17:48.864Z,6.97
2018-09-09T04:22:51.355Z,7.97
2018-09-09T04:27:53.895Z,8.30
2018-09-09T04:32:56.388Z,7.13
2018-09-09T04:37:58.916Z,7.33
2018-09-09T04:43:01.478Z,7.73
2018-09-09T04:48:04.030Z,7.77
2018-09-09T04:53:07.179Z,7.30
2018-09-09T04:58:09.692Z,7.70
2018-09-09T05:03:12.211Z,9.87
2018-09-09T05:08:14.759Z,6.07
2018-09-09T05:13:17.319Z,6.27
2018-09-09T05:18:19.835Z,7.83
2018-09-09T05:23:22.344Z,6.17
2018-09-09T05:28:24.868Z,6.53
2018-09-09T05:33:27.429Z,6.60
2018-09-09T05:38:29.938Z,5.17
2018-09-09T05:43:32.475Z,5.77
2018-09-09T05:48:34.999Z,6.53
2018-09-09T05:53:37.529Z,6.53
2018-09-09T05:58:40.055Z,6.03
2018-09-09T06:03:42.572Z,6.03
2018-09-09T06:08:45.229Z,6.60
2018-09-09T06:13:47.771Z,5.40
2018-09-09T06:18:50.335Z,5.37
2018-09-09T06:23:52.843Z,19.57
2018-09-09T06:28:55.507Z,14.40
2018-09-09T06:33:58.055Z,13.37
2018-09-09T06:39:00.616Z,18.33
2018-09-09T06:44:03.264Z,23.63
2018-09-09T06:49:06.607Z,28.30
2018-09-09T06:54:09.127Z,21.83
2018-09-09T06:59:11.673Z,7.90
2018-09-09T07:04:14.211Z,6.03
2018-09-09T07:09:16.792Z,7.40
2018-09-09T07:14:19.320Z,5.73
2018-09-09T07:19:21.843Z,6.30
2018-09-09T07:24:24.411Z,5.47
2018-09-09T07:29:26.928Z,6.30
2018-09-09T07:34:29.447Z,5.03
2018-09-09T07:39:32.012Z,5.43
2018-09-09T07:44:34.745Z,5.47
2018-09-09T07:49:37.334Z,6.03
2018-09-09T07:54:39.863Z,5.37
2018-09-09T07:59:42.467Z,5.13
2018-09-09T08:04:44.993Z,5.27
2018-09-09T08:09:47.702Z,5.57
2018-09-09T08:14:50.292Z,5.40
2018-09-09T08:19:52.860Z,5.80
2018-09-09T08:24:55.395Z,6.67
2018-09-09T08:29:57.926Z,6.23
2018-09-09T08:35:00.505Z,6.03
2018-09-09T08:40:03.170Z,5.57
2018-09-09T08:45:06.999Z,5.70
2018-09-09T08:50:09.623Z,5.47
2018-09-09T08:55:12.179Z,5.33
2018-09-09T09:00:14.719Z,6.40
2018-09-09T09:05:17.258Z,5.43
2018-09-09T09:10:19.843Z,5.90
2018-09-09T09:15:22.392Z,4.73
2018-09-09T09:20:24.956Z,5.13
2018-09-09T09:25:27.523Z,5.47
2018-09-09T09:30:30.072Z,5.50
2018-09-09T09:35:38.383Z,5.37
2018-09-09T09:40:40.952Z,5.20
2018-09-09T09:45:43.492Z,4.53
2018-09-09T09:50:46.506Z,4.33
2018-09-09T09:55:49.072Z,4.20
2018-09-09T10:00:57.429Z,3.73
2018-09-09T10:06:00.084Z,3.87
2018-09-09T10:11:02.639Z,3.47
2018-09-09T10:16:05.191Z,3.33
2018-09-09T10:21:07.743Z,2.63
2018-09-09T10:26:10.447Z,3.33
2018-09-09T10:31:13.082Z,2.73
2018-09-09T10:36:15.640Z,2.20
2018-09-09T10:41:18.821Z,2.33
2018-09-09T10:46:21.547Z,1.80
2018-09-09T10:51:23.902Z,2.08
2018-09-09T10:56:26.434Z,1.55
2018-09-09T11:01:28.988Z,1.52
2018-09-09T11:06:31.533Z,1.30
2018-09-09T11:11:34.053Z,1.40
2018-09-09T11:16:36.564Z,1.75
2018-09-09T11:21:39.118Z,1.62
2018-09-09T11:26:41.714Z,1.82
2018-09-09T11:31:44.385Z,1.60
2018-09-09T11:36:47.012Z,1.60
2018-09-09T11:41:49.575Z,1.60
2018-09-09T11:46:52.142Z,1.80
2018-09-09T11:51:54.728Z,1.90
2018-09-09T11:56:57.402Z,1.90
2018-09-09T12:02:00.158Z,1.85
2018-09-09T12:07:02.712Z,1.52
2018-09-09T12:12:05.319Z,1.75
2018-09-09T12:17:08.102Z,1.60
2018-09-09T12:22:12.763Z,1.80
2018-09-09T12:27:15.286Z,1.65
2018-09-09T12:32:17.886Z,1.80
2018-09-09T12:37:20.936Z,1.65
2018-09-09T12:42:23.504Z,1.60
2018-09-09T12:47:31.811Z,1.70
2018-09-09T12:52:34.351Z,1.55
2018-09-09T12:57:36.889Z,1.57
2018-09-09T13:02:39.410Z,1.52
2018-09-09T13:07:42.088Z,1.75
2018-09-09T13:12:50.974Z,1.60
2018-09-09T13:17:53.527Z,1.45
2018-09-09T13:22:56.493Z,1.70
2018-09-09T13:27:59.052Z,1.95
2018-09-09T13:33:01.819Z,1.57
2018-09-09T13:38:04.417Z,1.70
2018-09-09T13:43:07.588Z,1.90
2018-09-09T13:48:11.161Z,1.47
2018-09-09T13:53:13.713Z,1.60
2018-09-09T13:58:16.351Z,1.70
2018-09-09T14:03:18.875Z,1.55
2018-09-09T14:08:21.404Z,1.52
2018-09-09T14:13:24.043Z,1.42
2018-09-09T14:18:26.625Z,1.40
2018-09-09T14:23:29.211Z,1.40
2018-09-09T14:28:32.537Z,1.30
2018-09-09T14:33:35.111Z,1.57
2018-09-09T14:38:37.692Z,1.20
2018-09-09T14:43:40.230Z,1.40
2018-09-09T14:48:42.765Z,1.40
2018-09-09T14:53:45.276Z,1.37
2018-09-09T14:58:47.958Z,1.30
2018-09-09T15:03:50.616Z,1.30
2018-09-09T15:08:53.223Z,1.60
2018-09-09T15:13:55.776Z,1.37
2018-09-09T15:18:58.337Z,1.10
2018-09-09T15:24:00.879Z,1.40
2018-09-09T15:29:04.444Z,16.70
2018-09-09T15:34:07.698Z,6.62
2018-09-09T15:39:10.251Z,2.50
2018-09-09T15:44:12.791Z,3.92
2018-09-09T15:49:15.338Z,2.15
2018-09-09T15:54:17.887Z,2.30
2018-09-09T15:59:20.402Z,3.25
2018-09-09T16:04:22.967Z,1.60
2018-09-09T16:09:25.547Z,1.10
2018-09-09T16:14:28.692Z,1.50
2018-09-09T16:19:31.261Z,1.60
2018-09-09T16:24:33.849Z,1.60
2018-09-09T16:29:36.398Z,1.27
2018-09-09T16:34:38.932Z,1.40
2018-09-09T16:39:41.720Z,1.40
2018-09-09T16:44:44.277Z,1.82
2018-09-09T16:49:46.850Z,1.90
2018-09-09T16:54:49.415Z,1.67
2018-09-09T16:59:52.012Z,1.65
2018-09-09T17:04:54.536Z,1.47
2018-09-09T17:09:57.087Z,1.50
2018-09-09T17:14:59.648Z,1.40
2018-09-09T17:20:02.222Z,1.50
2018-09-09T17:25:04.888Z,1.77
2018-09-09T17:30:07.499Z,1.57
2018-09-09T17:35:10.048Z,1.57
2018-09-09T17:40:12.645Z,1.80
2018-09-09T17:45:15.176Z,1.67
2018-09-09T17:50:17.747Z,1.60
2018-09-09T17:55:20.694Z,1.90
2018-09-09T18:00:23.287Z,1.90
2018-09-09T18:05:25.914Z,1.60
2018-09-09T18:10:28.500Z,1.73
2018-09-09T18:15:31.108Z,1.70
2018-09-09T18:20:33.898Z,1.90
2018-09-09T18:25:36.390Z,2.08
2018-09-09T18:30:38.987Z,2.20
2018-09-09T18:35:41.511Z,2.00
2018-09-09T18:40:44.142Z,1.80
2018-09-09T18:45:46.712Z,1.43
2018-09-09T18:50:49.376Z,1.60
2018-09-09T18:55:51.967Z,1.70
2018-09-09T19:00:54.546Z,1.70
2018-09-09T19:05:57.114Z,1.73
2018-09-09T19:10:59.723Z,1.73
2018-09-09T19:16:02.427Z,1.80
2018-09-09T19:21:04.999Z,1.60
2018-09-09T19:26:07.717Z,1.50
2018-09-09T19:31:10.315Z,1.70
2018-09-09T19:36:13.140Z,1.70
2018-09-09T19:41:15.739Z,1.73
2018-09-09T19:46:18.291Z,1.50
2018-09-09T19:51:20.872Z,2.00
2018-09-09T19:56:23.492Z,2.00
2018-09-09T20:01:26.205Z,1.50
2018-09-09T20:06:28.932Z,1.60
2018-09-09T20:11:31.610Z,2.03
2018-09-09T20:16:34.191Z,1.90
2018-09-09T20:21:36.776Z,1.70
2018-09-09T20:26:39.589Z,1.50
2018-09-09T20:31:42.297Z,1.70
2018-09-09T20:36:44.850Z,1.80
2018-09-09T20:41:47.406Z,1.90
2018-09-09T20:46:50.186Z,2.30
2018-09-09T20:51:52.779Z,2.10
2018-09-09T20:56:55.320Z,2.00
2018-09-09T21:01:57.860Z,1.87
2018-09-09T21:07:00.611Z,1.90
2018-09-09T21:12:03.271Z,1.80
2018-09-09T21:17:05.808Z,1.60
2018-09-09T21:22:08.335Z,1.83
2018-09-09T21:27:10.856Z,1.67
2018-09-09T21:32:13.370Z,1.90
2018-09-09T21:37:16.011Z,1.73
2018-09-09T21:42:18.542Z,1.90
2018-09-09T21:47:21.106Z,2.10
2018-09-09T21:52:23.755Z,1.80
2018-09-09T21:57:26.332Z,1.60
2018-09-09T22:02:28.956Z,1.60
2018-09-09T22:07:31.515Z,1.97
2018-09-09T22:12:34.065Z,2.00
2018-09-09T22:17:36.719Z,1.83
2018-09-09T22:22:39.331Z,1.80
2018-09-09T22:27:41.931Z,2.13
2018-09-09T22:32:44.458Z,1.80
2018-09-09T22:37:47.008Z,1.87
2018-09-09T22:42:49.547Z,2.00
2018-09-09T22:47:52.116Z,1.63
2018-09-09T22:52:54.733Z,1.77
2018-09-09T22:57:57.273Z,1.80
2018-09-09T23:02:59.803Z,1.83
2018-09-09T23:08:02.331Z,1.50
2018-09-09T23:13:05.121Z,1.70
2018-09-09T23:18:07.743Z,1.80
2018-09-09T23:23:10.271Z,1.90
2018-09-09T23:28:12.823Z,1.70
2018-09-09T23:33:15.418Z,2.00
2018-09-09T23:38:18.579Z,1.80
2018-09-09T23:43:21.090Z,1.93
2018-09-09T23:48:23.671Z,1.90
2018-09-09T23:53:26.211Z,1.70
2018-09-09T23:58:28.746Z,2.00
